Time;durP1;ratioP1;P1;durP2;ratioP2;P2;SDS_P1;SDS_P2;PMS_P1;PMS_P2;Temp;Humidity;BMP_temperature;BMP_pressure;BME280_temperature;BME280_humidity;BME280_pressure;Samples;Min_cycle;Max_cycle;Signal;HPM_P1;HPM_P2
2023/09/03 00:00:55;;;;;;;16.13;13.60;;;18.30;99.90;;;;;;5032819;28;20438;-45
2023/09/03 00:03:21;;;;;;;13.37;11.27;;;18.30;99.90;;;;;;5032780;28;20442;-44
2023/09/03 00:05:50;;;;;;;18.17;13.33;;;18.30;99.90;;;;;;5032823;28;20478;-45
2023/09/03 00:08:17;;;;;;;14.30;12.90;;;18.30;99.90;;;;;;5032246;28;20465;-45
2023/09/03 00:10:44;;;;;;;13.83;12.37;;;18.30;99.90;;;;;;5033426;28;20457;-47
2023/09/03 00:13:10;;;;;;;13.90;12.70;;;18.30;99.90;;;;;;5032982;28;20457;-44
2023/09/03 00:15:39;;;;;;;18.93;14.20;;;18.30;99.90;;;;;;5032720;28;20471;-45
2023/09/03 00:18:06;;;;;;;13.10;11.90;;;18.30;99.90;;;;;;5032098;28;20437;-45
2023/09/03 00:20:33;;;;;;;15.00;12.40;;;18.30;99.90;;;;;;5032405;28;20530;-44
2023/09/03 00:23:01;;;;;;;14.93;13.53;;;18.30;99.90;;;;;;5032380;28;20446;-45
2023/09/03 00:25:27;;;;;;;14.07;12.67;;;18.30;99.90;;;;;;5032330;28;20443;-44
2023/09/03 00:27:54;;;;;;;14.93;11.90;;;18.30;99.90;;;;;;5031921;28;20486;-45
2023/09/03 00:30:21;;;;;;;12.50;11.20;;;18.30;99.90;;;;;;5031226;28;20971;-44
2023/09/03 00:32:48;;;;;;;12.70;11.50;;;18.40;99.90;;;;;;5032145;28;20432;-44
2023/09/03 00:35:14;;;;;;;12.23;11.00;;;18.40;99.90;;;;;;5032288;28;20466;-46
2023/09/03 00:37:41;;;;;;;18.10;12.20;;;18.40;99.90;;;;;;5030328;28;20467;-46
2023/09/03 00:40:10;;;;;;;13.30;11.90;;;18.40;99.90;;;;;;5032076;28;20443;-45
2023/09/03 00:42:35;;;;;;;12.10;10.70;;;18.40;99.90;;;;;;5030786;28;20529;-45
2023/09/03 00:45:02;;;;;;;15.00;12.23;;;18.40;99.90;;;;;;5030807;28;20964;-45
2023/09/03 00:47:29;;;;;;;12.57;11.30;;;18.40;99.90;;;;;;5030324;28;20254;-46
2023/09/03 00:49:56;;;;;;;12.50;11.23;;;18.40;99.90;;;;;;5031938;28;20438;-44
2023/09/03 00:52:25;;;;;;;12.50;11.30;;;18.30;99.90;;;;;;5032489;28;20431;-44
2023/09/03 00:54:52;;;;;;;15.13;12.13;;;18.40;99.90;;;;;;5030589;28;21026;-45
2023/09/03 00:57:21;;;;;;;14.57;11.70;;;18.40;99.90;;;;;;5032063;28;20469;-45
2023/09/03 00:59:48;;;;;;;13.20;10.63;;;18.40;99.90;;;;;;5032106;28;20819;-45
2023/09/03 01:02:19;;;;;;;12.00;10.63;;;18.40;99.90;;;;;;5031968;28;20438;-44
2023/09/03 01:04:46;;;;;;;10.90;9.90;;;18.40;99.90;;;;;;5033603;28;20959;-45
2023/09/03 01:07:14;;;;;;;12.23;10.90;;;18.40;99.90;;;;;;5034301;28;20497;-45
2023/09/03 01:09:41;;;;;;;10.17;9.17;;;18.40;99.90;;;;;;5034947;28;20551;-44
2023/09/03 01:12:14;;;;;;;9.03;8.10;;;18.40;99.90;;;;;;5036316;28;20435;-43
2023/09/03 01:14:50;;;;;;;10.77;9.77;;;18.40;99.90;;;;;;5035864;28;20661;-45
2023/09/03 01:17:21;;;;;;;13.87;11.17;;;18.30;99.90;;;;;;5034410;28;20466;-44
2023/09/03 01:20:07;;;;;;;11.20;10.10;;;18.40;99.90;;;;;;5036008;28;20817;-46
2023/09/03 01:23:04;;;;;;;11.47;9.63;;;18.50;99.90;;;;;;5034768;28;20864;-46
2023/09/03 01:25:45;;;;;;;12.10;10.83;;;18.50;99.90;;;;;;5029424;28;20470;-44
2023/09/03 01:28:23;;;;;;;13.00;11.63;;;18.50;99.90;;;;;;5058008;22;20498;-44
2023/09/03 01:30:51;;;;;;;12.83;10.90;;;18.50;99.90;;;;;;5035518;28;20437;-45
2023/09/03 01:33:18;;;;;;;13.57;10.27;;;18.40;99.90;;;;;;5035689;28;20935;-44
2023/09/03 01:35:47;;;;;;;12.93;10.83;;;18.40;99.90;;;;;;5035475;28;20427;-45
2023/09/03 01:38:14;;;;;;;10.70;9.60;;;18.40;99.90;;;;;;5033814;28;20475;-45
2023/09/03 01:40:41;;;;;;;11.10;10.10;;;18.20;99.90;;;;;;5034330;28;20454;-44
2023/09/03 01:43:09;;;;;;;10.37;9.40;;;18.40;99.90;;;;;;5034196;28;20822;-45
2023/09/03 01:45:50;;;;;;;10.13;9.03;;;18.40;99.90;;;;;;5033824;28;20435;-44
2023/09/03 01:48:28;;;;;;;10.60;9.50;;;18.40;99.90;;;;;;5035123;28;20450;-44
2023/09/03 01:51:13;;;;;;;11.37;10.27;;;18.60;99.90;;;;;;5034104;28;20451;-45
2023/09/03 01:53:50;;;;;;;11.43;10.27;;;18.40;99.90;;;;;;5034053;28;20471;-45
2023/09/03 01:56:21;;;;;;;11.60;10.20;;;18.50;99.90;;;;;;5036770;28;20430;-42
2023/09/03 01:58:52;;;;;;;11.00;9.90;;;18.40;99.90;;;;;;5034080;28;20973;-44
2023/09/03 02:01:22;;;;;;;12.00;9.10;;;18.30;99.90;;;;;;5034277;28;20482;-45
2023/09/03 02:03:51;;;;;;;11.67;10.47;;;18.30;99.90;;;;;;5034172;28;20454;-46
2023/09/03 02:06:17;;;;;;;11.90;10.80;;;18.40;99.90;;;;;;5033895;28;20470;-43
2023/09/03 02:08:44;;;;;;;12.83;11.30;;;18.20;99.90;;;;;;5033749;28;20485;-45
2023/09/03 02:11:11;;;;;;;12.03;10.83;;;18.20;99.90;;;;;;5035076;28;20438;-44
2023/09/03 02:13:37;;;;;;;10.20;9.07;;;18.20;99.90;;;;;;5037858;28;20423;-43
2023/09/03 02:16:04;;;;;;;9.70;8.80;;;18.10;99.90;;;;;;5039551;28;20493;-44
2023/09/03 02:18:32;;;;;;;12.87;11.57;;;18.10;99.90;;;;;;5039702;28;20458;-43
2023/09/03 02:20:59;;;;;;;13.17;11.50;;;18.10;99.90;;;;;;5039592;28;20512;-44
2023/09/03 02:23:25;;;;;;;12.10;11.00;;;18.00;99.90;;;;;;5034469;28;20456;-44
2023/09/03 02:26:00;;;;;;;13.10;11.80;;;17.80;99.90;;;;;;5033546;28;20460;-45
2023/09/03 02:28:27;;;;;;;11.20;10.13;;;18.00;99.90;;;;;;5032932;28;20547;-45
2023/09/03 02:30:54;;;;;;;10.87;9.97;;;17.90;99.90;;;;;;5033848;28;20864;-45
2023/09/03 02:33:21;;;;;;;13.03;11.70;;;17.90;99.90;;;;;;5033348;28;20461;-45
2023/09/03 02:35:50;;;;;;;13.40;10.63;;;17.90;99.90;;;;;;5033575;28;20447;-45
2023/09/03 02:38:17;;;;;;;12.30;11.17;;;17.90;99.90;;;;;;5032724;28;20498;-45
2023/09/03 02:40:44;;;;;;;13.57;11.10;;;17.90;99.90;;;;;;5034347;28;20881;-44
2023/09/03 02:43:11;;;;;;;12.37;10.50;;;17.90;99.90;;;;;;5034470;28;20443;-45
2023/09/03 02:45:38;;;;;;;12.83;11.43;;;17.80;99.90;;;;;;5033173;28;20451;-43
2023/09/03 02:48:06;;;;;;;13.43;12.23;;;17.80;99.90;;;;;;5032337;28;20482;-46
2023/09/03 02:50:35;;;;;;;15.60;12.50;;;17.80;99.90;;;;;;5034415;28;20818;-45
2023/09/03 02:53:04;;;;;;;12.30;10.90;;;17.80;99.90;;;;;;5033134;28;20455;-43
2023/09/03 02:55:31;;;;;;;13.50;12.20;;;17.70;99.90;;;;;;5035269;28;20430;-44
2023/09/03 02:57:57;;;;;;;16.37;12.47;;;17.70;99.90;;;;;;5032505;28;20465;-45
2023/09/03 03:00:24;;;;;;;12.13;10.93;;;17.70;99.90;;;;;;5034394;28;20802;-44
2023/09/03 03:02:52;;;;;;;13.00;11.70;;;17.60;99.90;;;;;;5033477;28;20508;-44
2023/09/03 03:05:19;;;;;;;16.20;12.50;;;17.70;99.90;;;;;;5034522;28;20445;-43
2023/09/03 03:07:45;;;;;;;13.97;12.63;;;17.70;99.90;;;;;;5034507;28;20484;-44
2023/09/03 03:10:13;;;;;;;13.13;11.60;;;17.60;99.90;;;;;;5033472;28;20443;-44
2023/09/03 03:12:44;;;;;;;15.80;11.53;;;17.60;99.90;;;;;;5032912;28;20504;-43
2023/09/03 03:15:10;;;;;;;12.90;11.63;;;17.60;99.90;;;;;;5032554;28;20453;-43
2023/09/03 03:17:38;;;;;;;12.63;11.53;;;17.60;99.90;;;;;;5032076;28;20472;-44
2023/09/03 03:20:08;;;;;;;12.97;11.43;;;17.60;99.90;;;;;;5032611;28;20946;-44
2023/09/03 03:22:34;;;;;;;12.47;11.17;;;17.50;99.90;;;;;;5033726;28;20838;-45
2023/09/03 03:25:02;;;;;;;12.80;11.57;;;17.50;99.90;;;;;;5032415;28;20453;-44
2023/09/03 03:27:31;;;;;;;12.10;10.90;;;17.50;99.90;;;;;;5030930;28;20885;-44
2023/09/03 03:29:57;;;;;;;14.63;10.73;;;17.50;99.90;;;;;;5032537;28;20445;-44
2023/09/03 03:32:24;;;;;;;20.10;17.97;;;17.50;99.90;;;;;;5032683;28;20857;-44
2023/09/03 03:34:55;;;;;;;12.10;11.00;;;17.50;99.90;;;;;;5032743;28;20483;-43
2023/09/03 03:37:22;;;;;;;13.20;11.03;;;17.40;99.90;;;;;;5032428;28;20467;-44
2023/09/03 03:39:50;;;;;;;12.20;11.10;;;17.40;99.90;;;;;;5033759;28;20456;-44
2023/09/03 03:42:18;;;;;;;12.43;11.17;;;17.40;99.90;;;;;;5032474;28;20454;-44
2023/09/03 03:44:47;;;;;;;12.03;10.93;;;17.40;99.90;;;;;;5032141;28;20449;-44
2023/09/03 03:47:13;;;;;;;11.40;10.40;;;17.40;99.90;;;;;;5031490;28;20916;-44
2023/09/03 03:49:40;;;;;;;18.47;11.90;;;17.40;99.90;;;;;;5032080;28;20553;-44
2023/09/03 03:52:06;;;;;;;12.07;10.47;;;17.20;99.90;;;;;;5032408;28;20544;-45
2023/09/03 03:54:33;;;;;;;11.17;10.00;;;17.30;99.90;;;;;;5032104;28;20466;-44
2023/09/03 03:57:00;;;;;;;11.77;10.60;;;17.40;99.90;;;;;;5034497;28;20454;-44
2023/09/03 03:59:28;;;;;;;11.17;10.07;;;17.30;99.90;;;;;;5033611;28;20446;-45
2023/09/03 04:01:57;;;;;;;11.43;10.20;;;17.30;99.90;;;;;;5033210;28;20453;-44
2023/09/03 04:04:23;;;;;;;9.70;8.80;;;17.50;99.90;;;;;;5031387;28;20482;-43
2023/09/03 04:06:50;;;;;;;11.47;10.47;;;17.20;99.90;;;;;;5031067;28;20485;-44
2023/09/03 04:09:17;;;;;;;11.50;10.30;;;17.30;99.90;;;;;;5031576;28;20960;-44
2023/09/03 04:11:43;;;;;;;10.77;9.63;;;17.20;99.90;;;;;;5031467;28;20482;-44
2023/09/03 04:14:10;;;;;;;10.63;9.63;;;17.20;99.90;;;;;;5032761;28;20438;-43
2023/09/03 04:16:36;;;;;;;9.27;8.33;;;17.20;99.90;;;;;;5031129;28;20473;-44
2023/09/03 04:19:04;;;;;;;10.03;8.20;;;17.10;99.90;;;;;;5032601;28;20435;-45
2023/09/03 04:21:31;;;;;;;9.70;8.90;;;17.10;99.90;;;;;;5032770;28;20448;-44
2023/09/03 04:23:58;;;;;;;10.20;9.07;;;17.00;99.90;;;;;;5031534;28;20453;-44
2023/09/03 04:26:24;;;;;;;9.77;8.87;;;17.00;99.90;;;;;;5030851;28;20449;-44
2023/09/03 04:28:53;;;;;;;10.20;9.30;;;16.90;99.90;;;;;;5031982;28;20566;-45
2023/09/03 04:31:20;;;;;;;9.97;9.10;;;16.90;99.90;;;;;;5032654;28;20430;-44
2023/09/03 04:33:47;;;;;;;9.70;8.70;;;16.80;99.90;;;;;;5031178;28;20483;-45
2023/09/03 04:36:15;;;;;;;9.10;7.97;;;16.90;99.90;;;;;;5031880;28;20445;-44
2023/09/03 04:38:41;;;;;;;9.80;8.80;;;16.80;99.90;;;;;;5030789;28;20449;-44
2023/09/03 04:41:08;;;;;;;10.00;8.30;;;16.70;99.90;;;;;;5031138;28;20812;-45
2023/09/03 04:43:44;;;;;;;10.03;9.03;;;17.00;99.90;;;;;;5031538;28;20448;-45
2023/09/03 04:46:12;;;;;;;8.40;7.60;;;16.80;99.90;;;;;;5031618;28;20441;-43
2023/09/03 04:48:39;;;;;;;8.80;7.83;;;16.90;99.90;;;;;;5031208;28;20563;-44
2023/09/03 04:51:07;;;;;;;9.03;7.90;;;16.80;99.90;;;;;;5031436;28;20790;-44
2023/09/03 04:53:35;;;;;;;8.83;7.93;;;16.70;99.90;;;;;;5031330;28;20505;-46
2023/09/03 04:56:02;;;;;;;7.17;6.47;;;16.50;99.90;;;;;;5031146;28;20527;-44
2023/09/03 04:58:31;;;;;;;9.67;7.33;;;16.80;99.90;;;;;;5030896;28;20516;-43
2023/09/03 05:00:59;;;;;;;8.17;7.37;;;16.70;99.90;;;;;;5031345;28;20857;-44
2023/09/03 05:03:26;;;;;;;8.33;7.53;;;16.70;99.90;;;;;;5031211;28;20449;-44
2023/09/03 05:05:53;;;;;;;9.03;7.37;;;16.70;99.90;;;;;;5031253;28;20514;-44
2023/09/03 05:08:19;;;;;;;7.83;7.03;;;16.70;99.90;;;;;;5030700;28;20477;-43
2023/09/03 05:10:49;;;;;;;8.17;7.50;;;16.70;99.90;;;;;;5031602;28;20452;-43
2023/09/03 05:13:16;;;;;;;11.37;7.40;;;16.60;99.90;;;;;;5031141;28;20464;-45
2023/09/03 05:15:42;;;;;;;9.07;8.17;;;16.60;99.90;;;;;;5031048;28;20515;-45
2023/09/03 05:18:09;;;;;;;8.07;7.27;;;16.60;99.90;;;;;;5031031;28;20511;-43
2023/09/03 05:20:37;;;;;;;8.73;7.73;;;16.60;99.90;;;;;;5031486;28;20445;-44
2023/09/03 05:23:05;;;;;;;7.23;6.73;;;16.60;99.90;;;;;;5031486;28;20524;-43
2023/09/03 05:25:32;;;;;;;10.10;7.60;;;16.70;99.90;;;;;;5031506;28;20613;-44
2023/09/03 05:28:00;;;;;;;7.40;6.60;;;16.70;99.90;;;;;;5030565;28;20492;-43
2023/09/03 05:30:27;;;;;;;7.77;6.33;;;16.70;99.90;;;;;;5032257;28;20490;-44
2023/09/03 05:32:54;;;;;;;7.63;6.90;;;16.80;99.90;;;;;;5030913;28;20569;-43
2023/09/03 05:35:23;;;;;;;7.10;6.37;;;16.80;99.90;;;;;;5030737;28;20450;-45
2023/09/03 05:37:51;;;;;;;6.90;6.20;;;16.70;99.90;;;;;;5030743;28;20468;-44
2023/09/03 05:40:18;;;;;;;7.33;6.63;;;16.80;99.90;;;;;;5032664;28;20767;-43
2023/09/03 05:42:44;;;;;;;6.80;6.20;;;16.80;99.90;;;;;;5033026;28;20840;-44
2023/09/03 05:45:13;;;;;;;7.77;6.20;;;16.80;99.90;;;;;;5031932;28;20835;-43
2023/09/03 05:47:40;;;;;;;9.40;6.57;;;16.50;99.90;;;;;;5032105;28;21011;-44
2023/09/03 05:50:07;;;;;;;8.33;7.20;;;16.80;99.90;;;;;;5034291;28;20439;-45
2023/09/03 05:52:34;;;;;;;18.57;6.20;;;16.80;99.90;;;;;;5038058;28;20451;-43
2023/09/03 05:55:03;;;;;;;8.40;7.47;;;16.90;99.90;;;;;;5037824;28;20463;-44
2023/09/03 05:57:29;;;;;;;7.60;6.13;;;16.90;99.90;;;;;;5038204;28;20964;-43
2023/09/03 05:59:56;;;;;;;7.37;5.70;;;16.90;99.90;;;;;;5038765;28;20435;-45
2023/09/03 06:02:24;;;;;;;6.87;5.37;;;16.90;99.90;;;;;;5036916;28;20544;-44
2023/09/03 06:04:51;;;;;;;7.57;5.53;;;16.80;99.90;;;;;;5038782;28;20796;-44
2023/09/03 06:07:17;;;;;;;6.67;5.97;;;16.90;99.90;;;;;;5037823;28;20873;-44
2023/09/03 06:09:44;;;;;;;6.83;5.97;;;17.00;99.90;;;;;;5038690;28;20934;-45
2023/09/03 06:12:11;;;;;;;9.43;5.77;;;17.00;99.90;;;;;;5038987;28;20433;-44
2023/09/03 06:14:38;;;;;;;7.20;5.80;;;17.00;99.90;;;;;;5038698;28;20432;-44
2023/09/03 06:17:05;;;;;;;8.20;5.60;;;17.10;99.90;;;;;;5036036;28;20468;-44
2023/09/03 06:19:33;;;;;;;6.40;5.20;;;17.10;99.90;;;;;;5036789;28;20429;-44
2023/09/03 06:22:00;;;;;;;7.73;4.73;;;17.20;99.90;;;;;;5037071;28;20922;-43
2023/09/03 06:24:27;;;;;;;7.13;4.77;;;17.30;99.90;;;;;;5037948;28;20435;-44
2023/09/03 06:26:54;;;;;;;5.47;4.57;;;17.40;99.90;;;;;;5037840;28;20509;-44
2023/09/03 06:29:20;;;;;;;9.03;5.77;;;17.50;99.90;;;;;;5037716;28;20796;-45
2023/09/03 06:31:47;;;;;;;5.03;4.03;;;17.50;99.90;;;;;;5037134;28;20437;-44
2023/09/03 06:34:14;;;;;;;9.00;3.70;;;17.50;99.90;;;;;;5036301;28;20441;-44
2023/09/03 06:36:42;;;;;;;7.10;4.17;;;17.50;99.90;;;;;;5036638;28;20787;-44
2023/09/03 06:39:08;;;;;;;6.47;4.20;;;17.40;99.90;;;;;;5035690;28;20437;-44
2023/09/03 06:41:36;;;;;;;4.60;4.20;;;17.40;99.90;;;;;;5035282;28;20450;-44
2023/09/03 06:44:03;;;;;;;7.27;4.47;;;17.40;99.90;;;;;;5036423;28;20443;-44
2023/09/03 06:46:30;;;;;;;4.67;3.60;;;17.50;99.90;;;;;;5035157;28;20454;-43
2023/09/03 06:48:57;;;;;;;7.07;3.30;;;17.50;99.90;;;;;;5033960;28;20489;-45
2023/09/03 06:51:23;;;;;;;5.57;4.30;;;17.60;99.90;;;;;;5034369;28;20442;-44
2023/09/03 06:53:51;;;;;;;5.00;3.87;;;17.60;99.90;;;;;;5033914;28;20446;-44
2023/09/03 06:56:18;;;;;;;4.93;4.20;;;17.60;99.90;;;;;;5033962;28;20444;-44
2023/09/03 06:58:44;;;;;;;4.73;3.83;;;17.60;99.90;;;;;;5033642;28;20442;-44
2023/09/03 07:01:11;;;;;;;6.00;3.90;;;17.80;99.90;;;;;;5034064;28;20945;-45
2023/09/03 07:03:37;;;;;;;4.37;3.60;;;17.80;99.90;;;;;;5034167;28;20434;-44
2023/09/03 07:06:04;;;;;;;6.73;4.37;;;17.90;99.90;;;;;;5033675;28;20931;-43
2023/09/03 07:08:31;;;;;;;6.73;3.73;;;17.90;99.90;;;;;;5033448;28;20852;-44
2023/09/03 07:11:01;;;;;;;3.93;3.17;;;18.10;99.90;;;;;;5034064;28;20444;-45
2023/09/03 07:13:28;;;;;;;5.60;3.20;;;18.00;99.90;;;;;;5033987;28;20442;-44
2023/09/03 07:15:55;;;;;;;5.63;2.80;;;18.20;99.90;;;;;;5033727;28;20931;-44
2023/09/03 07:18:22;;;;;;;5.00;2.73;;;18.30;99.90;;;;;;5033201;28;20970;-45
2023/09/03 07:20:48;;;;;;;6.43;3.30;;;18.30;99.90;;;;;;5034130;28;20449;-44
2023/09/03 07:23:15;;;;;;;7.13;3.10;;;18.50;99.90;;;;;;5033838;28;20438;-46
2023/09/03 07:25:41;;;;;;;11.23;4.50;;;18.50;99.90;;;;;;5034759;28;20529;-44
2023/09/03 07:28:09;;;;;;;4.90;3.47;;;18.50;99.90;;;;;;5056620;22;20498;-47
2023/09/03 07:30:36;;;;;;;4.53;2.90;;;18.40;99.90;;;;;;5033178;28;20930;-46
2023/09/03 07:33:02;;;;;;;6.47;3.60;;;18.30;99.90;;;;;;5033350;28;20814;-46
2023/09/03 07:35:31;;;;;;;9.37;3.13;;;18.20;99.90;;;;;;5032917;28;20439;-45
2023/09/03 07:37:58;;;;;;;3.60;3.03;;;18.20;99.90;;;;;;5032185;28;20965;-47
2023/09/03 07:40:24;;;;;;;9.60;2.90;;;18.20;99.90;;;;;;5032663;28;20437;-47
2023/09/03 07:42:51;;;;;;;5.30;3.20;;;18.30;99.90;;;;;;5033104;28;20517;-47
2023/09/03 07:45:19;;;;;;;4.33;3.43;;;18.40;99.90;;;;;;5032618;28;20835;-47
2023/09/03 07:47:46;;;;;;;3.83;2.30;;;18.50;99.90;;;;;;5032196;28;20458;-47
2023/09/03 07:50:12;;;;;;;3.57;2.37;;;18.70;99.90;;;;;;5032701;28;20471;-47
2023/09/03 07:52:39;;;;;;;8.53;2.80;;;18.60;99.90;;;;;;5032817;28;20443;-47
2023/09/03 07:55:07;;;;;;;4.53;2.33;;;18.80;99.90;;;;;;5032610;28;20518;-46
2023/09/03 07:57:33;;;;;;;6.00;2.57;;;18.90;99.90;;;;;;5032310;28;20463;-46
2023/09/03 08:00:00;;;;;;;4.00;2.33;;;19.00;99.90;;;;;;5032858;28;20794;-45
2023/09/03 08:02:29;;;;;;;4.07;2.60;;;19.10;99.90;;;;;;5032593;28;20475;-45
2023/09/03 08:04:56;;;;;;;4.53;2.30;;;19.20;99.90;;;;;;5032599;28;20781;-45
2023/09/03 08:07:24;;;;;;;4.13;2.20;;;19.30;99.90;;;;;;5031600;28;20830;-46
2023/09/03 08:09:51;;;;;;;2.70;2.30;;;19.40;99.90;;;;;;5032307;28;20481;-46
2023/09/03 08:12:17;;;;;;;3.37;2.70;;;19.20;99.90;;;;;;5031589;28;20437;-46
2023/09/03 08:14:47;;;;;;;6.27;2.60;;;19.20;99.90;;;;;;5032312;28;20920;-47
2023/09/03 08:17:13;;;;;;;4.20;2.40;;;19.40;99.90;;;;;;5030212;28;20873;-46
2023/09/03 08:19:41;;;;;;;7.30;2.93;;;19.40;99.90;;;;;;5032185;28;20783;-46
2023/09/03 08:22:08;;;;;;;6.47;2.00;;;19.30;99.90;;;;;;5030965;28;20444;-46
2023/09/03 08:24:34;;;;;;;3.60;1.97;;;19.30;99.90;;;;;;5032264;28;20451;-46
2023/09/03 08:27:01;;;;;;;5.00;2.30;;;19.30;99.90;;;;;;5030239;28;20585;-46
2023/09/03 08:29:28;;;;;;;5.87;2.20;;;19.30;99.90;;;;;;5031889;28;20506;-46
2023/09/03 08:31:54;;;;;;;5.90;2.43;;;19.30;99.90;;;;;;5031890;28;20423;-47
2023/09/03 08:34:21;;;;;;;4.63;2.20;;;19.30;99.90;;;;;;5031951;28;20494;-46
2023/09/03 08:36:49;;;;;;;2.90;2.00;;;19.40;99.90;;;;;;5031786;28;20786;-47
2023/09/03 08:39:15;;;;;;;4.40;2.43;;;19.40;99.90;;;;;;5032156;28;20807;-46
2023/09/03 08:41:42;;;;;;;4.03;2.50;;;19.50;99.90;;;;;;5030416;28;20471;-47
2023/09/03 08:44:16;;;;;;;3.70;2.40;;;19.20;99.90;;;;;;5031982;28;20437;-46
2023/09/03 08:46:46;;;;;;;4.27;2.80;;;19.60;99.90;;;;;;5031395;28;20444;-47
2023/09/03 08:49:15;;;;;;;4.17;2.80;;;19.60;99.90;;;;;;5031669;28;20476;-46
2023/09/03 08:51:42;;;;;;;4.40;2.40;;;19.70;99.90;;;;;;5031751;28;20434;-46
2023/09/03 08:54:11;;;;;;;4.60;2.80;;;19.60;99.90;;;;;;5031683;28;20953;-45
2023/09/03 08:56:37;;;;;;;3.70;3.13;;;19.70;99.90;;;;;;5031818;28;20437;-46
2023/09/03 08:59:04;;;;;;;4.17;2.80;;;19.80;99.90;;;;;;5030319;28;20799;-47
2023/09/03 09:01:31;;;;;;;6.97;2.90;;;19.70;99.90;;;;;;5031452;28;20514;-47
2023/09/03 09:04:02;;;;;;;5.27;3.40;;;19.80;99.90;;;;;;5031570;28;20435;-47
2023/09/03 09:06:32;;;;;;;4.67;2.30;;;19.80;99.80;;;;;;5031704;28;20452;-47
2023/09/03 09:08:59;;;;;;;4.10;2.10;;;20.10;99.50;;;;;;5031262;28;20479;-47
2023/09/03 09:11:35;;;;;;;5.37;2.83;;;20.20;99.20;;;;;;5031857;28;20411;-46
2023/09/03 09:14:04;;;;;;;2.77;1.70;;;20.20;98.60;;;;;;5031794;28;20804;-47
2023/09/03 09:16:31;;;;;;;6.70;1.47;;;20.20;97.50;;;;;;5031704;28;20434;-47
2023/09/03 09:18:58;;;;;;;5.13;2.50;;;20.10;97.40;;;;;;5031468;28;20434;-47
2023/09/03 09:21:30;;;;;;;4.30;2.00;;;20.00;97.40;;;;;;5031923;28;20547;-47
2023/09/03 09:24:01;;;;;;;4.70;1.50;;;20.10;97.40;;;;;;5031680;28;20440;-46
2023/09/03 09:26:33;;;;;;;3.97;1.70;;;20.10;97.40;;;;;;5035400;28;20487;-47
2023/09/03 09:29:01;;;;;;;5.63;1.70;;;20.10;97.30;;;;;;5035174;28;20472;-47
2023/09/03 09:31:29;;;;;;;3.93;2.17;;;19.90;97.30;;;;;;5035509;28;20666;-46
2023/09/03 09:33:56;;;;;;;2.97;1.93;;;20.20;97.70;;;;;;5035697;28;20442;-47
2023/09/03 09:36:22;;;;;;;5.30;2.10;;;19.90;97.40;;;;;;5035456;28;20954;-47
2023/09/03 09:38:49;;;;;;;4.67;1.73;;;19.90;97.60;;;;;;5035781;28;20452;-47
2023/09/03 09:41:24;;;;;;;4.00;2.27;;;20.00;97.70;;;;;;5036103;28;20804;-47
2023/09/03 09:43:52;;;;;;;3.00;1.77;;;20.10;97.60;;;;;;5035750;28;20437;-47
2023/09/03 09:46:29;;;;;;;3.53;1.67;;;20.40;97.80;;;;;;5035989;28;20476;-47
2023/09/03 09:48:57;;;;;;;3.27;1.80;;;20.20;97.20;;;;;;5035466;28;20473;-47
2023/09/03 09:51:24;;;;;;;2.63;1.53;;;20.30;97.00;;;;;;5035919;28;20474;-47
2023/09/03 09:53:57;;;;;;;3.10;1.83;;;20.30;96.70;;;;;;5035365;28;20434;-47
2023/09/03 09:56:27;;;;;;;3.40;1.43;;;20.40;96.60;;;;;;5035464;28;20436;-47
2023/09/03 09:58:56;;;;;;;2.93;1.80;;;20.50;96.40;;;;;;5034930;28;20452;-46
2023/09/03 10:01:25;;;;;;;2.67;1.70;;;20.60;95.80;;;;;;5035094;28;20937;-47
2023/09/03 10:03:51;;;;;;;3.87;1.30;;;20.60;95.70;;;;;;5034429;28;20504;-46
2023/09/03 10:06:19;;;;;;;2.20;1.80;;;20.80;95.40;;;;;;5034534;28;20943;-46
2023/09/03 10:08:47;;;;;;;2.00;1.70;;;20.70;95.00;;;;;;5034144;28;20511;-47
2023/09/03 10:11:14;;;;;;;3.93;1.80;;;20.60;94.80;;;;;;5034877;28;20821;-46
2023/09/03 10:13:42;;;;;;;2.93;1.60;;;20.60;95.10;;;;;;5034874;28;20885;-47
2023/09/03 10:16:11;;;;;;;2.87;1.70;;;20.60;94.70;;;;;;5034532;28;20434;-46
2023/09/03 10:18:41;;;;;;;2.47;1.23;;;20.40;94.50;;;;;;5033942;28;20977;-46
2023/09/03 10:21:09;;;;;;;3.43;2.13;;;20.40;94.50;;;;;;5034571;28;20965;-46
2023/09/03 10:23:41;;;;;;;2.13;1.87;;;20.40;94.70;;;;;;5034174;28;20441;-46
2023/09/03 10:26:12;;;;;;;5.73;2.07;;;20.50;95.00;;;;;;5034136;28;20445;-46
2023/09/03 10:28:42;;;;;;;4.00;2.40;;;20.30;95.20;;;;;;5033609;28;20470;-47
2023/09/03 10:31:12;;;;;;;3.60;2.00;;;20.60;95.60;;;;;;5033922;28;20946;-47
2023/09/03 10:33:40;;;;;;;3.10;2.00;;;21.50;96.20;;;;;;5033888;28;20450;-47
2023/09/03 10:36:14;;;;;;;4.63;2.30;;;20.60;94.60;;;;;;5033889;28;20983;-46
2023/09/03 10:38:41;;;;;;;4.53;1.70;;;20.60;94.40;;;;;;5033590;28;20465;-46
2023/09/03 10:41:21;;;;;;;3.60;1.70;;;20.50;94.60;;;;;;5034033;28;20433;-46
2023/09/03 10:43:48;;;;;;;4.67;2.50;;;20.60;94.40;;;;;;5033455;28;20442;-47
2023/09/03 10:46:16;;;;;;;3.13;1.90;;;20.50;94.40;;;;;;5033472;28;20439;-46
2023/09/03 10:48:52;;;;;;;5.30;2.37;;;20.60;94.70;;;;;;5033731;28;20932;-46
2023/09/03 10:51:36;;;;;;;4.67;2.27;;;20.60;94.60;;;;;;5033735;28;20437;-47
2023/09/03 10:54:16;;;;;;;2.53;2.00;;;20.60;94.60;;;;;;5033391;28;20435;-47
2023/09/03 10:57:17;;;;;;;4.43;2.43;;;20.70;94.30;;;;;;5033144;28;20441;-48
2023/09/03 11:00:10;;;;;;;4.07;1.93;;;20.80;94.60;;;;;;5032998;28;20935;-47
2023/09/03 11:02:39;;;;;;;3.63;2.27;;;21.00;94.50;;;;;;5033465;28;20438;-46
2023/09/03 11:05:10;;;;;;;3.30;2.00;;;21.20;94.50;;;;;;5033170;28;20442;-46
2023/09/03 11:07:37;;;;;;;3.07;1.97;;;21.30;93.90;;;;;;5032953;28;20466;-46
2023/09/03 11:10:41;;;;;;;3.00;1.80;;;21.30;93.90;;;;;;5032903;28;20474;-46
2023/09/03 11:13:14;;;;;;;6.53;2.40;;;21.60;94.10;;;;;;5033246;28;20484;-46
2023/09/03 11:15:55;;;;;;;3.27;1.80;;;21.80;93.40;;;;;;5033064;28;20442;-46
2023/09/03 11:18:25;;;;;;;4.17;1.90;;;21.90;92.30;;;;;;5032777;28;20752;-47
2023/09/03 11:20:52;;;;;;;4.87;1.97;;;21.90;92.90;;;;;;5033101;28;20941;-47
2023/09/03 11:23:19;;;;;;;3.87;1.83;;;22.00;93.00;;;;;;5032688;28;20424;-47
2023/09/03 11:25:47;;;;;;;3.80;2.00;;;22.10;93.20;;;;;;5032072;28;20454;-47
2023/09/03 11:28:14;;;;;;;3.17;2.00;;;20.90;91.30;;;;;;5032523;28;20472;-46
2023/09/03 11:30:42;;;;;;;2.83;1.73;;;22.00;92.00;;;;;;5032978;28;20480;-46
2023/09/03 11:33:09;;;;;;;3.20;1.80;;;22.00;91.60;;;;;;5033348;28;20921;-46
2023/09/03 11:35:43;;;;;;;2.13;1.50;;;22.00;91.10;;;;;;5032739;28;20472;-46
2023/09/03 11:38:10;;;;;;;2.63;1.60;;;22.00;90.80;;;;;;5032347;28;20446;-46
2023/09/03 11:40:37;;;;;;;2.70;1.40;;;21.90;90.70;;;;;;5032927;28;20740;-47
2023/09/03 11:43:07;;;;;;;2.67;1.50;;;22.00;90.90;;;;;;5032619;28;20920;-46
2023/09/03 11:45:34;;;;;;;4.30;2.30;;;21.90;90.90;;;;;;5032490;28;20631;-47
2023/09/03 11:48:02;;;;;;;6.57;2.00;;;22.00;91.10;;;;;;5031514;28;20455;-46
2023/09/03 11:50:29;;;;;;;2.63;1.70;;;22.00;91.00;;;;;;5032477;28;20499;-47
2023/09/03 11:52:59;;;;;;;2.90;1.93;;;21.90;90.70;;;;;;5032778;28;20444;-46
2023/09/03 11:55:30;;;;;;;2.20;1.87;;;21.70;90.60;;;;;;5033399;28;20498;-46
2023/09/03 11:58:00;;;;;;;3.80;2.00;;;21.80;90.70;;;;;;5031896;28;20460;-45
2023/09/03 12:00:27;;;;;;;3.10;2.20;;;21.80;91.00;;;;;;5032829;28;20433;-48
2023/09/03 12:02:55;;;;;;;1.90;1.60;;;22.10;91.40;;;;;;5032395;28;20440;-47
2023/09/03 12:05:22;;;;;;;2.83;2.03;;;22.00;91.30;;;;;;5032353;28;20445;-47
2023/09/03 12:07:48;;;;;;;3.73;1.90;;;21.80;91.20;;;;;;5032006;28;20552;-47
2023/09/03 12:10:19;;;;;;;2.83;2.07;;;21.80;91.20;;;;;;5032228;28;20479;-48
2023/09/03 12:12:46;;;;;;;4.43;2.37;;;21.90;91.20;;;;;;5032033;28;20465;-47
2023/09/03 12:15:20;;;;;;;3.27;2.10;;;22.00;91.00;;;;;;5032155;28;20438;-47
2023/09/03 12:17:47;;;;;;;4.50;2.53;;;22.10;91.00;;;;;;5032156;28;20463;-46
2023/09/03 12:20:32;;;;;;;2.60;1.60;;;21.90;90.90;;;;;;5032096;28;20444;-46
2023/09/03 12:23:07;;;;;;;3.60;2.47;;;22.00;90.70;;;;;;5032498;28;20914;-47
2023/09/03 12:25:35;;;;;;;2.40;1.60;;;22.00;91.20;;;;;;5032389;28;20517;-48
2023/09/03 12:28:04;;;;;;;4.00;1.87;;;21.90;91.20;;;;;;5031578;28;20480;-46
2023/09/03 12:30:56;;;;;;;3.57;2.10;;;22.00;90.90;;;;;;5030533;28;20480;-46
2023/09/03 12:33:23;;;;;;;6.30;2.20;;;22.10;90.80;;;;;;5032076;28;20582;-47
2023/09/03 12:36:09;;;;;;;3.30;1.73;;;22.20;91.00;;;;;;5031963;28;20431;-46
2023/09/03 12:38:51;;;;;;;5.03;2.20;;;22.20;90.50;;;;;;5031876;28;20448;-47
2023/09/03 12:41:20;;;;;;;3.90;2.10;;;22.30;90.20;;;;;;5032575;28;20921;-48
2023/09/03 12:43:46;;;;;;;4.13;2.40;;;22.20;90.40;;;;;;5032375;28;20906;-47
2023/09/03 12:46:13;;;;;;;3.37;2.17;;;22.20;90.40;;;;;;5032653;28;20441;-48
2023/09/03 12:48:41;;;;;;;3.70;2.27;;;22.20;90.20;;;;;;5032550;28;20967;-47